createdAt,value
2018-07-13T00:00:03.391Z,17.00
2018-07-13T00:02:31.324Z,16.90
2018-07-13T00:04:59.677Z,16.90
2018-07-13T00:07:28.019Z,16.90
2018-07-13T00:09:56.380Z,16.80
2018-07-13T00:12:24.672Z,16.80
2018-07-13T00:15:03.570Z,16.70
2018-07-13T00:17:31.855Z,16.70
2018-07-13T00:20:00.216Z,16.70
2018-07-13T00:22:28.492Z,16.60
2018-07-13T00:24:56.771Z,16.60
2018-07-13T00:27:25.104Z,16.50
2018-07-13T00:29:53.394Z,16.50
2018-07-13T00:32:21.722Z,16.50
2018-07-13T00:34:50.135Z,16.50
2018-07-13T00:37:18.698Z,16.40
2018-07-13T00:39:47.092Z,16.40
2018-07-13T00:42:15.457Z,16.40
2018-07-13T00:44:43.793Z,16.40
2018-07-13T00:47:12.117Z,16.40
2018-07-13T00:49:40.400Z,16.30
2018-07-13T00:52:08.719Z,16.30
2018-07-13T00:57:05.071Z,16.30
2018-07-13T00:59:33.394Z,16.20
2018-07-13T01:02:01.722Z,16.20
2018-07-13T01:04:30.026Z,16.10
2018-07-13T01:06:58.376Z,16.10
2018-07-13T01:09:26.740Z,16.00
2018-07-13T01:11:55.042Z,16.10
2018-07-13T01:14:23.395Z,16.00
2018-07-13T01:16:51.687Z,16.00
2018-07-13T01:19:20.019Z,16.00
2018-07-13T01:21:48.408Z,16.00
2018-07-13T01:24:16.786Z,15.90
2018-07-13T01:26:45.102Z,15.90
2018-07-13T01:31:41.399Z,15.80
2018-07-13T01:34:09.706Z,15.80
2018-07-13T01:36:38.000Z,15.70
2018-07-13T01:39:09.102Z,15.70
2018-07-13T01:41:37.413Z,15.70
2018-07-13T01:44:06.039Z,15.70
2018-07-13T01:46:34.375Z,15.60
2018-07-13T01:49:02.726Z,15.60
2018-07-13T01:51:31.094Z,15.60
2018-07-13T01:53:59.476Z,15.60
2018-07-13T01:56:27.785Z,15.50
2018-07-13T01:58:56.201Z,15.60
2018-07-13T02:01:24.511Z,15.50
2018-07-13T02:03:52.876Z,15.50
2018-07-13T02:06:21.163Z,15.50
2018-07-13T02:08:52.163Z,15.60
2018-07-13T02:11:20.580Z,15.50
2018-07-13T02:13:49.147Z,15.60
2018-07-13T02:16:17.477Z,15.60
2018-07-13T02:18:45.770Z,15.60
2018-07-13T02:21:14.058Z,15.60
2018-07-13T02:23:42.336Z,15.50
2018-07-13T02:26:10.675Z,15.40
2018-07-13T02:28:39.055Z,15.40
2018-07-13T02:31:07.471Z,15.40
2018-07-13T02:33:35.772Z,15.40
2018-07-13T02:36:04.098Z,15.40
2018-07-13T02:38:32.420Z,15.40
2018-07-13T02:41:00.739Z,15.40
2018-07-13T02:43:29.035Z,15.30
2018-07-13T02:45:57.314Z,15.30
2018-07-13T02:48:25.602Z,15.30
2018-07-13T02:50:53.928Z,15.30
2018-07-13T02:53:22.223Z,15.30
2018-07-13T02:55:50.572Z,15.30
2018-07-13T02:58:18.876Z,15.30
2018-07-13T03:00:47.165Z,15.30
2018-07-13T03:03:15.720Z,15.30
2018-07-13T03:05:44.066Z,15.30
2018-07-13T03:08:12.492Z,15.30
2018-07-13T03:10:40.801Z,15.40
2018-07-13T03:13:09.214Z,15.40
2018-07-13T03:15:37.490Z,15.40
2018-07-13T03:18:05.788Z,15.50
2018-07-13T03:20:34.077Z,15.50
2018-07-13T03:23:02.399Z,15.40
2018-07-13T03:25:30.736Z,15.40
2018-07-13T03:30:27.450Z,15.40
2018-07-13T03:32:55.731Z,15.50
2018-07-13T03:35:24.089Z,15.60
2018-07-13T03:37:52.406Z,15.50
2018-07-13T03:40:20.744Z,15.50
2018-07-13T03:42:49.092Z,15.40
2018-07-13T03:45:17.652Z,15.50
2018-07-13T03:47:46.011Z,15.40
2018-07-13T03:50:14.352Z,15.30
2018-07-13T03:52:42.604Z,15.30
2018-07-13T03:55:10.933Z,15.30
2018-07-13T03:57:39.240Z,15.40
2018-07-13T04:00:07.634Z,15.40
2018-07-13T04:02:35.917Z,15.40
2018-07-13T04:05:04.236Z,15.50
2018-07-13T04:07:32.524Z,15.50
2018-07-13T04:10:00.851Z,15.60
2018-07-13T04:12:29.189Z,15.50
2018-07-13T04:14:57.508Z,15.60
2018-07-13T04:17:25.899Z,15.60
2018-07-13T04:19:54.498Z,15.50
2018-07-13T04:22:22.819Z,15.40
2018-07-13T04:24:51.089Z,15.60
2018-07-13T04:27:19.455Z,15.60
2018-07-13T04:29:47.788Z,15.60
2018-07-13T04:32:16.100Z,15.60
2018-07-13T04:34:44.384Z,15.60
2018-07-13T04:37:12.672Z,15.70
2018-07-13T04:39:41.046Z,15.80
2018-07-13T04:42:09.813Z,15.70
2018-07-13T04:44:38.256Z,15.70
2018-07-13T04:47:06.531Z,15.70
2018-07-13T04:49:34.814Z,15.70
2018-07-13T04:52:03.259Z,15.80
2018-07-13T04:54:32.877Z,15.70
2018-07-13T04:57:01.305Z,15.90
2018-07-13T04:59:29.707Z,16.00
2018-07-13T05:01:58.131Z,16.10
2018-07-13T05:04:26.484Z,16.20
2018-07-13T05:06:55.767Z,16.10
2018-07-13T05:09:24.127Z,16.10
2018-07-13T05:11:52.458Z,16.10
2018-07-13T05:14:20.814Z,16.10
2018-07-13T05:16:49.238Z,16.10
2018-07-13T05:19:17.524Z,16.10
2018-07-13T05:21:45.880Z,16.00
2018-07-13T05:24:14.173Z,16.00
2018-07-13T05:26:42.711Z,15.90
2018-07-13T05:29:11.162Z,15.90
2018-07-13T05:31:39.856Z,15.90
2018-07-13T05:34:08.476Z,15.90
2018-07-13T05:36:36.844Z,15.90
2018-07-13T05:39:08.556Z,15.90
2018-07-13T05:41:37.511Z,15.90
2018-07-13T05:44:05.884Z,16.00
2018-07-13T05:46:34.368Z,16.10
2018-07-13T05:49:02.679Z,16.10
2018-07-13T05:51:31.084Z,16.10
2018-07-13T05:53:59.479Z,15.90
2018-07-13T05:56:27.905Z,15.90
2018-07-13T05:58:56.286Z,16.00
2018-07-13T06:01:24.674Z,16.00
2018-07-13T06:03:53.029Z,16.10
2018-07-13T06:06:21.358Z,16.10
2018-07-13T06:08:49.686Z,16.10
2018-07-13T06:11:17.985Z,16.00
2018-07-13T06:13:46.342Z,16.00
2018-07-13T06:16:14.760Z,16.00
2018-07-13T06:18:43.163Z,16.00
2018-07-13T06:21:11.502Z,16.10
2018-07-13T06:23:39.865Z,16.10
2018-07-13T06:26:08.271Z,15.90
2018-07-13T06:28:36.581Z,16.10
2018-07-13T06:31:04.873Z,16.10
2018-07-13T06:33:33.166Z,16.00
2018-07-13T06:36:01.489Z,16.00
2018-07-13T06:38:30.316Z,16.10
2018-07-13T06:40:58.697Z,16.10
2018-07-13T06:43:27.018Z,16.20
2018-07-13T06:45:55.350Z,16.30
2018-07-13T06:48:23.660Z,16.40
2018-07-13T06:50:51.979Z,16.40
2018-07-13T06:53:20.366Z,16.40
2018-07-13T06:55:50.313Z,16.30
2018-07-13T06:58:30.509Z,16.40
2018-07-13T07:01:04.708Z,16.40
2018-07-13T07:03:34.576Z,16.50
2018-07-13T07:06:08.410Z,16.50
2018-07-13T07:08:38.202Z,16.70
2018-07-13T07:11:06.580Z,16.50
2018-07-13T07:13:36.976Z,16.60
2018-07-13T07:16:05.598Z,16.50
2018-07-13T07:18:34.012Z,16.70
2018-07-13T07:21:02.308Z,16.70
2018-07-13T07:23:31.262Z,16.70
2018-07-13T07:26:00.440Z,16.90
2018-07-13T07:28:28.842Z,16.90
2018-07-13T07:30:57.833Z,17.00
2018-07-13T07:33:26.188Z,17.00
2018-07-13T07:35:54.609Z,16.90
2018-07-13T07:38:22.963Z,16.90
2018-07-13T07:40:51.259Z,17.00
2018-07-13T07:43:20.121Z,17.20
2018-07-13T07:45:48.461Z,17.30
2018-07-13T07:48:16.807Z,17.40
2018-07-13T07:50:45.129Z,17.50
2018-07-13T07:53:13.419Z,17.60
2018-07-13T07:55:41.758Z,17.70
2018-07-13T07:58:10.114Z,17.50
2018-07-13T08:00:38.922Z,17.50
2018-07-13T08:03:07.280Z,17.60
2018-07-13T08:05:35.682Z,17.70
2018-07-13T08:08:04.114Z,17.70
2018-07-13T08:10:32.401Z,17.70
2018-07-13T08:13:01.089Z,17.70
2018-07-13T08:15:29.448Z,17.50
2018-07-13T08:17:57.858Z,17.40
2018-07-13T08:20:29.091Z,17.20
2018-07-13T08:23:01.077Z,17.40
2018-07-13T08:25:30.198Z,17.50
2018-07-13T08:28:00.676Z,17.50
2018-07-13T08:30:38.375Z,17.60
2018-07-13T08:33:06.714Z,17.70
2018-07-13T08:35:35.052Z,17.70
2018-07-13T08:38:03.495Z,17.70
2018-07-13T08:40:31.851Z,17.80
2018-07-13T08:43:00.160Z,17.90
2018-07-13T08:45:28.485Z,18.00
2018-07-13T08:47:57.031Z,18.00
2018-07-13T08:50:25.404Z,18.10
2018-07-13T08:52:54.077Z,18.20
2018-07-13T08:55:22.415Z,18.20
2018-07-13T08:57:50.749Z,18.30
2018-07-13T09:00:19.431Z,18.40
2018-07-13T09:02:47.816Z,18.50
2018-07-13T09:05:16.142Z,18.60
2018-07-13T09:07:44.603Z,18.70
2018-07-13T09:10:13.664Z,18.60
2018-07-13T09:12:42.862Z,18.80
2018-07-13T09:15:12.818Z,19.00
2018-07-13T09:17:41.807Z,19.00
2018-07-13T09:20:11.820Z,19.10
2018-07-13T09:22:41.351Z,19.30
2018-07-13T09:25:10.368Z,19.30
2018-07-13T09:27:38.990Z,19.20
2018-07-13T09:30:07.872Z,19.40
2018-07-13T09:32:36.241Z,19.40
2018-07-13T09:35:04.656Z,19.60
2018-07-13T09:37:33.631Z,19.60
2018-07-13T09:40:02.001Z,19.70
2018-07-13T09:42:30.328Z,19.80
2018-07-13T09:44:58.711Z,19.90
2018-07-13T09:47:34.854Z,20.00
2018-07-13T09:50:04.668Z,20.00
2018-07-13T09:52:32.999Z,20.10
2018-07-13T09:55:01.335Z,20.20
2018-07-13T09:57:29.590Z,20.30
2018-07-13T09:59:57.855Z,20.40
2018-07-13T10:02:26.136Z,20.50
2018-07-13T10:04:54.536Z,20.70
2018-07-13T10:07:22.914Z,20.80
2018-07-13T10:09:51.252Z,20.80
2018-07-13T10:12:19.681Z,20.80
2018-07-13T10:14:47.937Z,21.00
2018-07-13T10:17:16.216Z,20.90
2018-07-13T10:19:44.606Z,21.00
2018-07-13T10:22:14.829Z,21.00
2018-07-13T10:24:43.871Z,21.30
2018-07-13T10:27:13.725Z,21.30
2018-07-13T10:29:46.468Z,21.10
2018-07-13T10:32:14.803Z,21.20
2018-07-13T10:34:43.707Z,21.20
2018-07-13T10:37:12.072Z,21.30
2018-07-13T10:39:40.343Z,21.30
2018-07-13T10:42:08.682Z,21.40
2018-07-13T10:44:36.998Z,21.50
2018-07-13T10:47:05.275Z,21.60
2018-07-13T10:49:33.585Z,21.80
2018-07-13T10:52:01.944Z,22.00
2018-07-13T10:54:30.265Z,21.80
2018-07-13T10:56:58.656Z,21.90
2018-07-13T10:59:27.011Z,22.00
2018-07-13T11:01:55.376Z,22.10
2018-07-13T11:04:23.651Z,22.30
2018-07-13T11:06:51.950Z,22.30
2018-07-13T11:09:20.297Z,22.20
2018-07-13T11:11:48.577Z,22.10
2018-07-13T11:14:16.874Z,22.20
2018-07-13T11:16:45.176Z,22.20
2018-07-13T11:19:13.424Z,22.30
2018-07-13T11:21:41.781Z,22.40
2018-07-13T11:24:10.094Z,22.50
2018-07-13T11:26:38.390Z,22.70
2018-07-13T11:29:06.802Z,22.80
2018-07-13T11:31:35.229Z,22.90
2018-07-13T11:34:03.549Z,23.00
2018-07-13T11:36:31.841Z,22.90
2018-07-13T11:39:00.124Z,23.00
2018-07-13T11:41:28.447Z,23.10
2018-07-13T11:43:56.783Z,23.10
2018-07-13T11:46:25.052Z,23.20
2018-07-13T11:48:53.352Z,23.30
2018-07-13T11:51:21.647Z,23.50
2018-07-13T11:53:50.230Z,23.20
2018-07-13T11:56:18.536Z,23.20
2018-07-13T11:58:46.831Z,23.40
2018-07-13T12:01:15.178Z,23.50
2018-07-13T12:06:11.539Z,23.80
2018-07-13T12:08:39.870Z,23.90
2018-07-13T12:11:08.313Z,24.00
2018-07-13T12:13:36.607Z,23.90
2018-07-13T12:16:04.916Z,23.90
2018-07-13T12:18:33.164Z,24.00
2018-07-13T12:21:01.538Z,24.20
2018-07-13T12:23:29.823Z,24.30
2018-07-13T12:25:58.142Z,24.10
2018-07-13T12:28:26.400Z,24.00
2018-07-13T12:30:54.683Z,24.20
2018-07-13T12:33:22.944Z,24.10
2018-07-13T12:35:52.121Z,24.10
2018-07-13T12:38:20.384Z,24.40
2018-07-13T12:40:48.689Z,24.40
2018-07-13T12:43:17.060Z,24.60
2018-07-13T12:45:45.364Z,24.70
2018-07-13T12:48:13.801Z,24.60
2018-07-13T12:50:42.167Z,24.60
2018-07-13T12:53:10.525Z,24.80
2018-07-13T12:55:38.836Z,25.10
2018-07-13T12:58:07.115Z,25.30
2018-07-13T13:00:35.464Z,25.20
2018-07-13T13:03:03.763Z,25.10
2018-07-13T13:05:32.144Z,25.30
2018-07-13T13:08:00.446Z,25.60
2018-07-13T13:10:28.729Z,25.60
2018-07-13T13:12:57.093Z,25.50
2018-07-13T13:15:25.549Z,25.50
2018-07-13T13:17:53.816Z,25.90
2018-07-13T13:20:22.132Z,25.80
2018-07-13T13:23:03.592Z,25.70
2018-07-13T13:25:32.089Z,25.20
2018-07-13T13:28:00.387Z,25.00
2018-07-13T13:30:28.674Z,25.00
2018-07-13T13:32:56.989Z,25.30
2018-07-13T13:35:25.413Z,25.50
2018-07-13T13:37:55.957Z,25.80
2018-07-13T13:40:24.299Z,26.00
2018-07-13T13:42:52.796Z,26.10
2018-07-13T13:45:21.721Z,26.30
2018-07-13T13:50:18.215Z,26.20
2018-07-13T13:52:46.555Z,26.30
2018-07-13T13:55:15.076Z,26.50
2018-07-13T13:57:43.412Z,26.00
2018-07-13T14:00:11.702Z,26.20
2018-07-13T14:02:40.034Z,26.20
2018-07-13T14:05:08.391Z,26.40
2018-07-13T14:07:36.632Z,26.50
2018-07-13T14:10:05.052Z,26.70
2018-07-13T14:12:33.312Z,26.30
2018-07-13T14:15:01.769Z,26.40
2018-07-13T14:17:30.073Z,26.40
2018-07-13T14:19:58.911Z,25.90
2018-07-13T14:24:57.253Z,25.50
2018-07-13T14:27:25.555Z,25.30
2018-07-13T14:29:53.950Z,25.20
2018-07-13T14:32:22.222Z,25.60
2018-07-13T14:34:50.554Z,25.70
2018-07-13T14:37:18.860Z,25.90
2018-07-13T14:39:47.225Z,25.70
2018-07-13T14:42:15.530Z,25.90
2018-07-13T14:44:43.836Z,26.10
2018-07-13T14:47:12.200Z,26.40
2018-07-13T14:49:40.500Z,26.80
2018-07-13T14:52:08.884Z,27.00
2018-07-13T14:54:37.202Z,26.60
2018-07-13T14:57:05.554Z,26.10
2018-07-13T14:59:33.994Z,26.20
2018-07-13T15:02:02.413Z,26.30
2018-07-13T15:04:30.719Z,26.40
2018-07-13T15:06:59.008Z,26.40
2018-07-13T15:09:27.346Z,26.40
2018-07-13T15:11:55.732Z,26.50
2018-07-13T15:14:24.034Z,26.70
2018-07-13T15:16:52.383Z,26.40
2018-07-13T15:19:20.676Z,26.30
2018-07-13T15:21:49.015Z,26.40
2018-07-13T15:24:17.344Z,26.30
2018-07-13T15:26:45.632Z,26.50
2018-07-13T15:29:13.944Z,26.80
2018-07-13T15:31:42.278Z,26.70
2018-07-13T15:34:10.560Z,26.50
2018-07-13T15:36:39.436Z,26.40
2018-07-13T15:39:07.971Z,26.60
2018-07-13T15:41:37.204Z,26.80
2018-07-13T15:44:05.565Z,26.70
2018-07-13T15:46:33.853Z,26.40
2018-07-13T15:49:02.280Z,26.10
2018-07-13T15:51:30.589Z,26.30
2018-07-13T15:53:58.878Z,26.30
2018-07-13T15:56:27.192Z,26.40
2018-07-13T15:58:55.517Z,26.30
2018-07-13T16:01:23.895Z,26.10
2018-07-13T16:03:52.176Z,25.80
2018-07-13T16:06:20.494Z,25.50
2018-07-13T16:08:48.752Z,25.40
2018-07-13T16:11:17.057Z,25.40
2018-07-13T16:13:45.386Z,25.40
2018-07-13T16:16:13.753Z,25.30
2018-07-13T16:18:42.101Z,25.20
2018-07-13T16:21:10.392Z,25.30
2018-07-13T16:23:38.658Z,25.70
2018-07-13T16:28:35.021Z,26.50
2018-07-13T16:31:03.444Z,26.50
2018-07-13T16:33:31.697Z,26.70
2018-07-13T16:36:00.044Z,26.70
2018-07-13T16:38:28.309Z,26.80
2018-07-13T16:40:56.593Z,27.00
2018-07-13T16:43:24.951Z,27.20
2018-07-13T16:45:53.339Z,27.10
2018-07-13T16:50:49.911Z,27.00
2018-07-13T16:55:46.152Z,27.00
2018-07-13T16:58:14.416Z,26.90
2018-07-13T17:00:42.762Z,26.90
2018-07-13T17:03:11.033Z,26.90
2018-07-13T17:05:39.343Z,26.80
2018-07-13T17:08:07.673Z,26.90
2018-07-13T17:10:35.926Z,26.90
2018-07-13T17:13:04.283Z,26.90
2018-07-13T17:15:32.556Z,27.20
2018-07-13T17:18:00.884Z,27.10
2018-07-13T17:20:29.511Z,27.30
2018-07-13T17:22:57.707Z,27.10
2018-07-13T17:25:26.025Z,27.30
2018-07-13T17:27:54.332Z,27.00
2018-07-13T17:30:22.632Z,27.30
2018-07-13T17:32:50.963Z,27.00
2018-07-13T17:35:19.291Z,27.00
2018-07-13T17:37:47.583Z,27.00
2018-07-13T17:40:16.107Z,26.90
2018-07-13T17:42:44.417Z,27.00
2018-07-13T17:47:40.872Z,26.80
2018-07-13T17:50:09.149Z,26.70
2018-07-13T17:52:37.448Z,26.90
2018-07-13T17:55:05.791Z,26.90
2018-07-13T18:00:02.173Z,26.90
2018-07-13T18:02:31.155Z,26.90
2018-07-13T18:04:59.505Z,26.90
2018-07-13T18:10:08.475Z,26.80
2018-07-13T18:12:36.772Z,26.90
2018-07-13T18:15:05.907Z,27.00
2018-07-13T18:17:34.239Z,26.80
2018-07-13T18:20:02.631Z,26.70
2018-07-13T18:22:30.908Z,26.70
2018-07-13T18:24:59.233Z,26.60
2018-07-13T18:27:27.574Z,26.50
2018-07-13T18:29:55.908Z,26.40
2018-07-13T18:32:24.271Z,26.30
2018-07-13T18:34:52.789Z,26.40
2018-07-13T18:37:21.275Z,26.50
2018-07-13T18:39:49.840Z,26.80
2018-07-13T18:42:18.132Z,26.80
2018-07-13T18:44:46.428Z,26.90
2018-07-13T18:47:14.746Z,26.90
2018-07-13T18:49:43.049Z,26.80
2018-07-13T18:52:12.487Z,26.80
2018-07-13T18:54:40.835Z,26.80
2018-07-13T18:57:09.183Z,26.40
2018-07-13T18:59:37.543Z,26.20
2018-07-13T19:02:06.354Z,26.00
2018-07-13T19:04:34.816Z,25.70
2018-07-13T19:07:03.128Z,25.30
2018-07-13T19:09:31.507Z,24.90
2018-07-13T19:11:59.841Z,24.70
2018-07-13T19:14:28.412Z,24.50
2018-07-13T19:16:56.792Z,24.30
2018-07-13T19:19:25.123Z,24.10
2018-07-13T19:21:53.445Z,23.90
2018-07-13T19:24:21.764Z,23.80
2018-07-13T19:26:50.110Z,23.70
2018-07-13T19:29:18.573Z,23.60
2018-07-13T19:31:48.059Z,23.50
2018-07-13T19:34:16.460Z,23.30
2018-07-13T19:36:44.780Z,23.20
2018-07-13T19:39:13.301Z,23.10
2018-07-13T19:41:41.634Z,23.00
2018-07-13T19:44:09.931Z,22.90
2018-07-13T19:46:38.295Z,22.80
2018-07-13T19:49:06.512Z,22.80
2018-07-13T19:51:35.006Z,22.60
2018-07-13T19:54:03.277Z,22.50
2018-07-13T19:56:31.579Z,22.40
2018-07-13T19:58:59.869Z,22.40
2018-07-13T20:01:28.200Z,22.30
2018-07-13T20:03:56.527Z,22.20
2018-07-13T20:06:24.912Z,22.10
2018-07-13T20:08:53.186Z,22.10
2018-07-13T20:11:21.524Z,22.00
2018-07-13T20:13:49.816Z,21.90
2018-07-13T20:16:18.191Z,21.90
2018-07-13T20:18:46.520Z,21.80
2018-07-13T20:21:14.887Z,21.70
2018-07-13T20:23:43.189Z,21.70
2018-07-13T20:26:11.529Z,21.60
2018-07-13T20:28:39.878Z,21.50
2018-07-13T20:31:08.312Z,21.40
2018-07-13T20:33:36.756Z,21.40
2018-07-13T20:38:33.104Z,21.30
2018-07-13T20:41:01.456Z,21.20
2018-07-13T20:43:29.896Z,21.20
2018-07-13T20:45:58.253Z,21.10
2018-07-13T20:48:26.600Z,21.10
2018-07-13T20:50:54.917Z,21.00
2018-07-13T20:53:23.229Z,20.90
2018-07-13T20:55:51.558Z,20.80
2018-07-13T21:00:47.933Z,20.70
2018-07-13T21:03:16.414Z,20.70
2018-07-13T21:05:44.764Z,20.60
2018-07-13T21:08:14.088Z,20.60
2018-07-13T21:10:42.569Z,20.50
2018-07-13T21:13:10.912Z,20.50
2018-07-13T21:15:39.233Z,20.40
2018-07-13T21:18:07.496Z,20.30
2018-07-13T21:20:35.983Z,20.30
2018-07-13T21:23:04.320Z,20.20
2018-07-13T21:25:32.643Z,20.20
2018-07-13T21:28:00.928Z,20.10
2018-07-13T21:30:29.251Z,20.10
2018-07-13T21:32:57.545Z,20.00
2018-07-13T21:35:25.913Z,20.00
2018-07-13T21:37:54.331Z,20.00
2018-07-13T21:40:22.668Z,19.90
2018-07-13T21:42:51.037Z,19.80
2018-07-13T21:45:19.442Z,19.80
2018-07-13T21:47:47.812Z,19.70
2018-07-13T21:50:16.072Z,19.60
2018-07-13T21:52:44.332Z,19.60
2018-07-13T21:55:12.643Z,19.50
2018-07-13T21:57:40.941Z,19.50
2018-07-13T22:00:09.251Z,19.40
2018-07-13T22:02:37.555Z,19.30
2018-07-13T22:05:05.949Z,19.30
2018-07-13T22:07:34.216Z,19.30
2018-07-13T22:10:02.509Z,19.30
2018-07-13T22:12:30.844Z,19.20
2018-07-13T22:14:59.327Z,19.20
2018-07-13T22:17:27.633Z,19.10
2018-07-13T22:22:26.474Z,19.00
2018-07-13T22:24:54.794Z,19.00
2018-07-13T22:27:23.102Z,19.00
2018-07-13T22:29:51.406Z,18.90
2018-07-13T22:32:19.731Z,18.80
2018-07-13T22:34:48.037Z,18.70
2018-07-13T22:37:16.387Z,18.70
2018-07-13T22:39:44.712Z,18.70
2018-07-13T22:42:12.990Z,18.60
2018-07-13T22:44:41.310Z,18.60
2018-07-13T22:47:09.589Z,18.60
2018-07-13T22:49:37.944Z,18.50
2018-07-13T22:52:06.365Z,18.50
2018-07-13T22:54:34.653Z,18.40
2018-07-13T22:57:03.037Z,18.40
2018-07-13T22:59:31.355Z,18.40
2018-07-13T23:01:59.667Z,18.30
2018-07-13T23:04:27.985Z,18.20
2018-07-13T23:06:56.485Z,18.20
2018-07-13T23:09:24.772Z,18.20
2018-07-13T23:11:53.102Z,18.20
2018-07-13T23:14:21.439Z,18.10
2018-07-13T23:16:49.931Z,18.10
2018-07-13T23:19:18.214Z,18.10
2018-07-13T23:21:46.562Z,18.00
2018-07-13T23:24:14.925Z,18.00
2018-07-13T23:26:43.229Z,17.90
2018-07-13T23:29:11.520Z,17.90
2018-07-13T23:31:40.003Z,17.80
2018-07-13T23:34:08.302Z,17.80
2018-07-13T23:36:36.653Z,17.70
2018-07-13T23:39:05.654Z,17.80
2018-07-13T23:41:33.992Z,17.70
2018-07-13T23:44:02.269Z,17.60
2018-07-13T23:46:30.584Z,17.60
2018-07-13T23:48:58.930Z,17.50
2018-07-13T23:51:27.202Z,17.50
2018-07-13T23:53:55.510Z,17.50
2018-07-13T23:56:23.865Z,17.40
2018-07-13T23:58:52.239Z,17.40
